Saltar al contingut principal

Dades de l'estació automàtica Camarasa

Selector estació i data
?
?

Resum diari

22:00 TU
Dades diàries de l'estació meteorològica
Temperatura mitjana 20.9 °C
Temperatura màxima 28.2 °C 15:15 TU
Temperatura mínima 15.5 °C 5:11 TU
Humitat relativa mitjana 62%
Precipitació acumulada 0.0 mm
Ratxa màxima del vent (2 m) 22.7 km/h - 132º 11:24 TU
Irradiació solar global 30.8 MJ/m2

El tram horari està expressat en Temps Universal (TU). Cal sumar una hora en horari d'hivern i dues en horari d'estiu per passar a l'hora oficial.

Camarasa

Metadades estació meteorològica
Municipi Camarasa
Comarca Noguera
Altitud 668 m
Data alta 07.03.2006
Estat actual Operativa
Dades de període
Període
TU
TM
°C
TX
°C
TN
°C
HRM
%
PPT
mm
VVM (2 m)
km/h
DVM (2 m)
graus
VVX (2 m)
km/h
RS
W/m2
00:00 - 00:30 16.3 16.4 16.2 94 0.0 4.7 108 11.9 0
00:30 - 01:00 16.3 16.4 16.3 92 0.0 4.0 109 10.1 0
01:00 - 01:30 16.2 16.3 16.1 91 0.0 4.0 103 9.0 0
01:30 - 02:00 16.1 16.2 16.1 90 0.0 2.9 110 7.9 0
02:00 - 02:30 16.1 16.1 16.0 90 0.0 1.4 114 4.3 0
02:30 - 03:00 16.2 16.2 16.0 88 0.0 0.0 146 2.2 0
03:00 - 03:30 16.2 16.3 16.2 88 0.0 0.4 199 4.3 0
03:30 - 04:00 16.2 16.3 16.2 88 0.0 1.4 189 4.0 0
04:00 - 04:30 16.0 16.2 15.7 90 0.0 4.7 156 9.4 1
04:30 - 05:00 15.6 15.7 15.6 89 0.0 5.4 150 10.4 17
05:00 - 05:30 15.6 15.8 15.5 87 0.0 4.3 160 10.1 57
05:30 - 06:00 15.9 16.3 15.7 84 0.0 2.5 147 8.6 128
06:00 - 06:30 17.1 17.3 16.4 77 0.0 5.4 147 11.5 330
06:30 - 07:00 17.8 18.7 17.4 72 0.0 5.0 146 10.8 437
07:00 - 07:30 18.9 19.7 18.2 66 0.0 5.4 130 11.2 514
07:30 - 08:00 18.1 18.7 17.8 68 0.0 5.4 154 10.8 339
08:00 - 08:30 18.8 19.6 18.2 65 0.0 6.5 155 14.0 481
08:30 - 09:00 20.1 20.6 19.1 61 0.0 6.1 157 13.3 756
09:00 - 09:30 20.5 20.9 19.9 58 0.0 6.1 151 14.0 796
09:30 - 10:00 21.2 21.7 20.8 56 0.0 6.5 172 15.5 859
10:00 - 10:30 22.3 23.1 21.4 53 0.0 6.8 161 16.6 915
10:30 - 11:00 23.0 23.5 22.6 51 0.0 7.6 162 18.4 988
11:00 - 11:30 23.5 24.1 23.0 49 0.0 7.6 151 22.7 1.013
11:30 - 12:00 24.3 25.5 23.4 46 0.0 7.2 171 18.7 1.009
12:00 - 12:30 23.9 24.8 23.1 46 0.0 6.5 169 14.4 811
12:30 - 13:00 25.3 26.4 24.3 42 0.0 5.4 177 15.8 956
13:00 - 13:30 25.3 26.3 24.4 42 0.0 5.8 177 14.8 916
13:30 - 14:00 25.3 26.1 24.5 42 0.0 4.3 159 14.8 792
14:00 - 14:30 26.4 27.3 25.0 39 0.0 4.7 144 14.8 837
14:30 - 15:00 26.2 27.1 25.3 39 0.0 4.7 197 15.5 791
15:00 - 15:30 27.5 28.2 26.6 35 0.0 4.0 122 11.2 834
15:30 - 16:00 27.5 28.1 27.2 35 0.0 4.7 145 12.2 717
16:00 - 16:30 27.3 27.5 26.9 35 0.0 5.0 168 11.9 585
16:30 - 17:00 27.0 27.6 26.4 35 0.0 5.0 165 14.0 465
17:00 - 17:30 25.8 26.7 24.9 37 0.0 5.0 171 14.8 209
17:30 - 18:00 25.7 26.0 24.9 36 0.0 6.1 174 13.3 280
18:00 - 18:30 25.5 25.6 25.2 35 0.0 5.4 193 13.3 200
18:30 - 19:00 24.6 25.2 23.1 38 0.0 5.8 184 17.6 91
19:00 - 19:30 22.1 22.9 21.5 58 0.0 9.0 155 21.6 19
19:30 - 20:00 20.9 21.4 20.6 62 0.0 5.0 126 12.6 0
20:00 - 20:30 20.2 20.6 19.7 65 0.0 4.7 131 11.9 0
20:30 - 21:00 19.5 19.7 19.4 68 0.0 4.0 125 9.4 0
21:00 - 21:30 19.3 19.5 19.0 70 0.0 5.0 128 13.0 0
21:30 - 22:00 18.8 19.0 18.6 73 0.0 4.3 107 11.9 0
22:00 - 22:30 18.3 18.6 18.1 74 0.0 3.2 106 8.3 0

Les dades en taronja només han passat un control de qualitat automàtic. Resta pendent la seva validació definitiva.